sensor_id;sensor_type;location;lat;lon;timestamp;pressure;altitude;pressure_sealevel;temperature;humidity
38026;BME280;23836;48.430;9.888;2022-07-15T00:01:41;95427.44;;;21.79;48.99
38026;BME280;23836;48.430;9.888;2022-07-15T00:11:22;95417.22;;;21.48;48.97
38026;BME280;23836;48.430;9.888;2022-07-15T00:16:12;95381.16;;;21.25;48.20
38026;BME280;23836;48.430;9.888;2022-07-15T00:21:04;95334.06;;;20.98;47.69
38026;BME280;23836;48.430;9.888;2022-07-15T00:25:54;95432.97;;;21.46;48.18
38026;BME280;23836;48.430;9.888;2022-07-15T00:30:45;95428.47;;;21.42;48.51
38026;BME280;23836;48.430;9.888;2022-07-15T00:35:36;95366.44;;;20.90;47.78
38026;BME280;23836;48.430;9.888;2022-07-15T00:40:27;95364.75;;;20.94;47.69
38026;BME280;23836;48.430;9.888;2022-07-15T00:45:19;95425.19;;;21.31;48.85
38026;BME280;23836;48.430;9.888;2022-07-15T00:50:11;95434.50;;;21.25;47.67
38026;BME280;23836;48.430;9.888;2022-07-15T00:55:04;95412.34;;;21.23;47.73
38026;BME280;23836;48.430;9.888;2022-07-15T00:59:59;95424.47;;;21.11;47.55
38026;BME280;23836;48.430;9.888;2022-07-15T01:04:52;95378.06;;;20.76;48.08
38026;BME280;23836;48.430;9.888;2022-07-15T01:09:43;95345.25;;;20.36;48.10
38026;BME280;23836;48.430;9.888;2022-07-15T01:14:34;95411.66;;;20.75;48.15
38026;BME280;23836;48.430;9.888;2022-07-15T01:19:24;95424.88;;;20.91;47.76
38026;BME280;23836;48.430;9.888;2022-07-15T01:24:15;95433.91;;;21.00;47.30
38026;BME280;23836;48.430;9.888;2022-07-15T01:29:05;95437.09;;;21.02;47.92
38026;BME280;23836;48.430;9.888;2022-07-15T01:33:55;95437.72;;;20.99;46.37
38026;BME280;23836;48.430;9.888;2022-07-15T01:38:46;95378.09;;;20.43;46.79
38026;BME280;23836;48.430;9.888;2022-07-15T01:43:36;95422.84;;;20.82;46.65
38026;BME280;23836;48.430;9.888;2022-07-15T01:48:27;95366.09;;;20.36;46.36
38026;BME280;23836;48.430;9.888;2022-07-15T01:53:36;95339.53;;;20.24;47.25
38026;BME280;23836;48.430;9.888;2022-07-15T01:58:26;95371.69;;;20.39;46.12
38026;BME280;23836;48.430;9.888;2022-07-15T02:03:17;95401.38;;;20.58;46.37
38026;BME280;23836;48.430;9.888;2022-07-15T02:08:07;95428.47;;;20.72;46.45
38026;BME280;23836;48.430;9.888;2022-07-15T02:12:58;95365.03;;;20.18;47.75
38026;BME280;23836;48.430;9.888;2022-07-15T02:17:48;95384.84;;;20.13;47.40
38026;BME280;23836;48.430;9.888;2022-07-15T02:22:38;95386.53;;;20.09;47.33
38026;BME280;23836;48.430;9.888;2022-07-15T02:27:29;95408.19;;;20.23;47.41
38026;BME280;23836;48.430;9.888;2022-07-15T02:32:19;95412.22;;;20.25;47.63
38026;BME280;23836;48.430;9.888;2022-07-15T02:37:09;95423.31;;;20.24;48.70
38026;BME280;23836;48.430;9.888;2022-07-15T02:42:00;95395.59;;;19.99;48.51
38026;BME280;23836;48.430;9.888;2022-07-15T02:46:50;95359.75;;;19.55;49.09
38026;BME280;23836;48.430;9.888;2022-07-15T02:51:41;95416.84;;;19.49;48.91
38026;BME280;23836;48.430;9.888;2022-07-15T02:56:31;95400.28;;;19.12;50.48
38026;BME280;23836;48.430;9.888;2022-07-15T03:01:21;95428.28;;;19.40;49.42
38026;BME280;23836;48.430;9.888;2022-07-15T03:06:12;95370.72;;;19.02;50.06
38026;BME280;23836;48.430;9.888;2022-07-15T03:11:02;95439.22;;;19.30;50.63
38026;BME280;23836;48.430;9.888;2022-07-15T03:15:52;95438.47;;;19.24;51.80
38026;BME280;23836;48.430;9.888;2022-07-15T03:20:43;95418.31;;;19.17;52.09
38026;BME280;23836;48.430;9.888;2022-07-15T03:25:36;95311.22;;;18.45;52.29
38026;BME280;23836;48.430;9.888;2022-07-15T03:30:26;95450.47;;;19.13;52.15
38026;BME280;23836;48.430;9.888;2022-07-15T03:35:16;95436.91;;;18.94;51.93
38026;BME280;23836;48.430;9.888;2022-07-15T03:40:07;95427.25;;;18.64;52.88
38026;BME280;23836;48.430;9.888;2022-07-15T03:44:58;95457.31;;;18.76;52.23
38026;BME280;23836;48.430;9.888;2022-07-15T03:49:48;95431.66;;;18.54;52.07
38026;BME280;23836;48.430;9.888;2022-07-15T03:54:38;95456.63;;;18.65;53.23
38026;BME280;23836;48.430;9.888;2022-07-15T03:59:29;95377.84;;;18.15;52.67
38026;BME280;23836;48.430;9.888;2022-07-15T04:04:19;95428.31;;;18.33;53.83
38026;BME280;23836;48.430;9.888;2022-07-15T04:09:10;95442.31;;;18.35;53.73
38026;BME280;23836;48.430;9.888;2022-07-15T04:14:01;95312.09;;;17.47;54.32
38026;BME280;23836;48.430;9.888;2022-07-15T04:54:19;95461.78;;;18.27;55.35
38026;BME280;23836;48.430;9.888;2022-07-15T06:08:32;95501.69;;;21.09;46.65
38026;BME280;23836;48.430;9.888;2022-07-15T07:03:30;95489.25;;;22.73;44.25
38026;BME280;23836;48.430;9.888;2022-07-15T07:08:22;95484.75;;;23.00;43.26
38026;BME280;23836;48.430;9.888;2022-07-15T07:41:41;95475.63;;;24.89;40.56
38026;BME280;23836;48.430;9.888;2022-07-15T07:46:33;95475.53;;;24.25;38.25
38026;BME280;23836;48.430;9.888;2022-07-15T07:51:43;95465.75;;;24.67;40.52
38026;BME280;23836;48.430;9.888;2022-07-15T07:56:51;95461.56;;;25.26;39.39
38026;BME280;23836;48.430;9.888;2022-07-15T08:18:42;95322.06;;;25.41;34.27
38026;BME280;23836;48.430;9.888;2022-07-15T08:23:33;95458.75;;;26.03;36.56
38026;BME280;23836;48.430;9.888;2022-07-15T08:28:25;95452.38;;;26.53;34.63
38026;BME280;23836;48.430;9.888;2022-07-15T08:33:18;95455.34;;;26.48;37.33
38026;BME280;23836;48.430;9.888;2022-07-15T08:38:10;95451.13;;;26.84;35.78
38026;BME280;23836;48.430;9.888;2022-07-15T08:43:05;95445.78;;;27.34;35.50
38026;BME280;23836;48.430;9.888;2022-07-15T08:47:57;95457.25;;;26.69;35.76
38026;BME280;23836;48.430;9.888;2022-07-15T13:32:22;95322.59;;;28.84;32.03
38026;BME280;23836;48.430;9.888;2022-07-15T13:37:13;95099.13;;;27.23;31.09
38026;BME280;23836;48.430;9.888;2022-07-15T13:42:03;95254.53;;;28.54;30.06
38026;BME280;23836;48.430;9.888;2022-07-15T13:46:54;95139.47;;;27.71;31.37
38026;BME280;23836;48.430;9.888;2022-07-15T13:51:44;95326.00;;;28.05;31.29
38026;BME280;23836;48.430;9.888;2022-07-15T13:56:35;95320.69;;;28.24;33.16
38026;BME280;23836;48.430;9.888;2022-07-15T14:01:27;95321.78;;;28.99;30.13
38026;BME280;23836;48.430;9.888;2022-07-15T14:06:18;95313.19;;;29.17;29.39
38026;BME280;23836;48.430;9.888;2022-07-15T14:11:08;95311.97;;;28.35;31.00
38026;BME280;23836;48.430;9.888;2022-07-15T14:15:59;95322.94;;;28.22;32.81
38026;BME280;23836;48.430;9.888;2022-07-15T14:20:50;95189.44;;;27.55;31.09
38026;BME280;23836;48.430;9.888;2022-07-15T14:25:40;95319.34;;;28.18;32.07
38026;BME280;23836;48.430;9.888;2022-07-15T14:30:30;95272.78;;;27.74;31.68
38026;BME280;23836;48.430;9.888;2022-07-15T14:35:21;95309.22;;;28.35;32.21
38026;BME280;23836;48.430;9.888;2022-07-15T14:40:11;95318.06;;;28.00;31.50
38026;BME280;23836;48.430;9.888;2022-07-15T14:45:02;95321.06;;;27.42;31.21
38026;BME280;23836;48.430;9.888;2022-07-15T14:49:54;95316.41;;;27.17;32.57
38026;BME280;23836;48.430;9.888;2022-07-15T14:54:44;95318.69;;;27.40;33.87
38026;BME280;23836;48.430;9.888;2022-07-15T14:59:34;95320.25;;;27.41;33.27
38026;BME280;23836;48.430;9.888;2022-07-15T15:04:27;95275.28;;;27.38;33.54
38026;BME280;23836;48.430;9.888;2022-07-15T15:09:19;95301.03;;;27.78;33.62
38026;BME280;23836;48.430;9.888;2022-07-15T15:14:10;95238.44;;;27.48;33.03
38026;BME280;23836;48.430;9.888;2022-07-15T15:19:00;95307.56;;;28.18;32.48
38026;BME280;23836;48.430;9.888;2022-07-15T15:23:51;95305.63;;;27.90;32.25
38026;BME280;23836;48.430;9.888;2022-07-15T15:28:41;95202.53;;;27.34;32.27
38026;BME280;23836;48.430;9.888;2022-07-15T15:33:31;95298.59;;;27.48;32.99
38026;BME280;23836;48.430;9.888;2022-07-15T15:38:22;95207.38;;;26.38;34.43
38026;BME280;23836;48.430;9.888;2022-07-15T15:43:12;95303.44;;;26.77;33.93
38026;BME280;23836;48.430;9.888;2022-07-15T15:48:04;95238.50;;;26.12;35.09
38026;BME280;23836;48.430;9.888;2022-07-15T15:52:55;95278.56;;;26.33;34.14
38026;BME280;23836;48.430;9.888;2022-07-15T15:57:45;95312.38;;;26.53;35.44
38026;BME280;23836;48.430;9.888;2022-07-15T16:02:36;95269.38;;;26.38;35.08
38026;BME280;23836;48.430;9.888;2022-07-15T16:07:26;95227.72;;;26.04;35.52
38026;BME280;23836;48.430;9.888;2022-07-15T16:12:16;95243.69;;;25.93;35.15
38026;BME280;23836;48.430;9.888;2022-07-15T16:28:00;95293.19;;;25.40;36.45
38026;BME280;23836;48.430;9.888;2022-07-15T19:00:25;95348.03;;;22.01;40.94
38026;BME280;23836;48.430;9.888;2022-07-15T19:21:05;95384.13;;;21.88;41.65
38026;BME280;23836;48.430;9.888;2022-07-15T19:25:56;95408.16;;;21.81;41.86
38026;BME280;23836;48.430;9.888;2022-07-15T19:30:46;95412.66;;;22.08;41.13
38026;BME280;23836;48.430;9.888;2022-07-15T19:35:37;95393.13;;;21.75;41.26
38026;BME280;23836;48.430;9.888;2022-07-15T19:40:28;95438.31;;;21.51;41.50
38026;BME280;23836;48.430;9.888;2022-07-15T19:45:18;95436.91;;;21.26;41.80
38026;BME280;23836;48.430;9.888;2022-07-15T19:50:11;95370.78;;;20.91;41.23
38026;BME280;23836;48.430;9.888;2022-07-15T19:55:02;95448.44;;;21.46;41.73
38026;BME280;23836;48.430;9.888;2022-07-15T19:59:52;95435.13;;;21.22;41.67
38026;BME280;23836;48.430;9.888;2022-07-15T20:05:01;95467.41;;;21.32;42.10
38026;BME280;23836;48.430;9.888;2022-07-15T20:09:52;95423.50;;;21.07;41.61
38026;BME280;23836;48.430;9.888;2022-07-15T20:14:42;95455.75;;;21.17;42.32
38026;BME280;23836;48.430;9.888;2022-07-15T20:19:32;95411.22;;;20.68;41.94
38026;BME280;23836;48.430;9.888;2022-07-15T20:24:23;95483.63;;;21.04;42.40
38026;BME280;23836;48.430;9.888;2022-07-15T20:29:14;95457.53;;;20.80;42.58
38026;BME280;23836;48.430;9.888;2022-07-15T20:34:04;95480.78;;;20.81;42.38
38026;BME280;23836;48.430;9.888;2022-07-15T20:38:55;95447.44;;;20.53;43.28
38026;BME280;23836;48.430;9.888;2022-07-15T20:43:45;95498.16;;;20.61;42.59
38026;BME280;23836;48.430;9.888;2022-07-15T20:48:35;95492.28;;;20.73;42.80
38026;BME280;23836;48.430;9.888;2022-07-15T20:53:26;95502.25;;;20.92;43.28
38026;BME280;23836;48.430;9.888;2022-07-15T20:58:16;95485.19;;;20.77;42.65
38026;BME280;23836;48.430;9.888;2022-07-15T21:03:07;95497.78;;;20.68;43.26
38026;BME280;23836;48.430;9.888;2022-07-15T21:07:57;95513.47;;;20.33;44.23
38026;BME280;23836;48.430;9.888;2022-07-15T21:12:48;95512.06;;;20.36;44.62
38026;BME280;23836;48.430;9.888;2022-07-15T21:17:38;95509.31;;;20.22;44.61
38026;BME280;23836;48.430;9.888;2022-07-15T21:22:28;95471.31;;;20.13;45.10
38026;BME280;23836;48.430;9.888;2022-07-15T21:27:19;95489.88;;;20.20;44.78
38026;BME280;23836;48.430;9.888;2022-07-15T21:32:09;95521.22;;;20.21;45.64
38026;BME280;23836;48.430;9.888;2022-07-15T21:37:00;95534.88;;;19.91;46.36
38026;BME280;23836;48.430;9.888;2022-07-15T21:41:51;95532.47;;;19.90;46.37
38026;BME280;23836;48.430;9.888;2022-07-15T21:46:42;95462.13;;;19.33;46.77
38026;BME280;23836;48.430;9.888;2022-07-15T21:51:32;95523.16;;;19.53;46.87
38026;BME280;23836;48.430;9.888;2022-07-15T21:56:22;95532.81;;;19.59;47.52
38026;BME280;23836;48.430;9.888;2022-07-15T22:01:13;95533.69;;;19.30;47.93
38026;BME280;23836;48.430;9.888;2022-07-15T22:06:03;95527.22;;;19.26;48.68
38026;BME280;23836;48.430;9.888;2022-07-15T22:10:58;95540.63;;;19.36;48.90
38026;BME280;23836;48.430;9.888;2022-07-15T22:32:26;95539.84;;;19.06;49.53
38026;BME280;23836;48.430;9.888;2022-07-15T22:37:17;95548.28;;;19.00;49.79
38026;BME280;23836;48.430;9.888;2022-07-15T22:42:08;95548.13;;;18.86;50.35
38026;BME280;23836;48.430;9.888;2022-07-15T22:47:00;95539.59;;;18.74;49.98
38026;BME280;23836;48.430;9.888;2022-07-15T22:51:51;95503.22;;;18.36;50.46
38026;BME280;23836;48.430;9.888;2022-07-15T22:56:41;95473.78;;;18.11;50.51
38026;BME280;23836;48.430;9.888;2022-07-15T23:01:31;95468.09;;;17.68;51.38
38026;BME280;23836;48.430;9.888;2022-07-15T23:06:22;95538.56;;;17.90;52.63
38026;BME280;23836;48.430;9.888;2022-07-15T23:11:12;95440.28;;;17.33;52.84
38026;BME280;23836;48.430;9.888;2022-07-15T23:16:03;95553.47;;;18.17;52.04
38026;BME280;23836;48.430;9.888;2022-07-15T23:20:53;95527.97;;;18.04;51.23
38026;BME280;23836;48.430;9.888;2022-07-15T23:25:44;95547.91;;;18.03;51.94
38026;BME280;23836;48.430;9.888;2022-07-15T23:30:34;95470.06;;;17.46;52.43
38026;BME280;23836;48.430;9.888;2022-07-15T23:35:24;95505.34;;;17.45;53.12
38026;BME280;23836;48.430;9.888;2022-07-15T23:40:15;95490.84;;;17.36;52.68
38026;BME280;23836;48.430;9.888;2022-07-15T23:45:05;95548.84;;;17.62;52.97
38026;BME280;23836;48.430;9.888;2022-07-15T23:49:56;95528.53;;;17.25;53.48
38026;BME280;23836;48.430;9.888;2022-07-15T23:54:46;95509.78;;;17.00;55.05
38026;BME280;23836;48.430;9.888;2022-07-15T23:59:37;95544.69;;;17.25;54.52
